Time;durP1;ratioP1;P1;durP2;ratioP2;P2;SDS_P1;SDS_P2;PMS_P1;PMS_P2;Temp;Humidity;BMP_temperature;BMP_pressure;BME280_temperature;BME280_humidity;BME280_pressure;Samples;Min_cycle;Max_cycle;Signal;HPM_P1;HPM_P2
2021/10/25 00:00:18;;;;;;;3.00;0.88;;;;;;;1.57;100.00;101032.75;5028504;28;20424;-60
2021/10/25 00:03:02;;;;;;;4.97;1.08;;;;;;;1.64;100.00;101029.50;5014257;28;20052;-62
2021/10/25 00:05:49;;;;;;;1.88;1.05;;;;;;;1.65;100.00;101019.94;5027747;28;20052;-60
2021/10/25 00:08:34;;;;;;;5.75;1.20;;;;;;;1.75;100.00;101016.81;5037343;28;20413;-64
2021/10/25 00:11:20;;;;;;;3.53;1.10;;;;;;;1.60;100.00;100998.88;5012067;28;20390;-65
2021/10/25 00:14:06;;;;;;;6.03;1.30;;;;;;;1.70;100.00;101028.84;5027307;28;20095;-62
2021/10/25 00:16:51;;;;;;;3.10;1.13;;;;;;;1.60;100.00;101042.41;5020902;28;20048;-62
2021/10/25 00:19:36;;;;;;;2.45;0.90;;;;;;;1.55;100.00;101039.66;5028031;28;20057;-61
2021/10/25 00:22:21;;;;;;;5.53;1.00;;;;;;;1.57;100.00;101037.97;5027521;28;20108;-62
2021/10/25 00:25:07;;;;;;;4.45;1.00;;;;;;;1.61;100.00;101033.72;5028216;28;20058;-64
2021/10/25 00:27:53;;;;;;;5.93;1.10;;;;;;;1.60;100.00;101037.19;5027562;28;20137;-61
2021/10/25 00:30:38;;;;;;;5.97;1.15;;;;;;;1.57;100.00;101032.75;5025172;28;20536;-63
2021/10/25 00:33:23;;;;;;;3.90;0.90;;;;;;;1.61;100.00;101036.34;5018988;28;20441;-61
2021/10/25 00:36:10;;;;;;;2.88;0.98;;;;;;;1.62;100.00;101046.84;5027020;28;20076;-64
2021/10/25 00:38:55;;;;;;;2.95;1.00;;;;;;;1.52;100.00;101034.31;5026595;28;20096;-61
2021/10/25 00:41:41;;;;;;;4.55;0.98;;;;;;;1.46;100.00;101049.75;4999559;28;20133;-68
2021/10/25 00:44:30;;;;;;;3.35;0.88;;;;;;;1.44;100.00;101048.81;5031553;28;20052;-65
2021/10/25 00:47:15;;;;;;;4.50;0.90;;;;;;;1.55;100.00;101057.94;5011277;28;20052;-62
2021/10/25 00:50:00;;;;;;;3.75;0.80;;;;;;;1.59;100.00;101066.78;5026453;28;20053;-62
2021/10/25 00:52:45;;;;;;;3.47;0.90;;;;;;;1.52;100.00;101090.91;5024822;28;20049;-62
2021/10/25 00:55:30;;;;;;;5.72;0.90;;;;;;;1.51;100.00;101078.69;5011640;28;20157;-64
2021/10/25 00:58:15;;;;;;;2.08;0.90;;;;;;;1.56;100.00;101077.13;5011372;28;20131;-61
2021/10/25 01:01:01;;;;;;;3.03;1.00;;;;;;;1.46;100.00;101077.63;5021880;28;20052;-63
2021/10/25 01:03:46;;;;;;;1.70;0.98;;;;;;;1.48;100.00;101089.00;5017571;28;20104;-60
2021/10/25 01:06:33;;;;;;;4.55;1.30;;;;;;;1.49;100.00;101080.31;5025389;28;20056;-62
2021/10/25 01:09:19;;;;;;;5.63;0.95;;;;;;;1.47;100.00;101082.91;4996179;28;20163;-63
2021/10/25 01:12:04;;;;;;;2.80;1.20;;;;;;;1.55;100.00;101075.34;5025217;28;20052;-63
2021/10/25 01:14:50;;;;;;;3.15;1.00;;;;;;;1.60;100.00;101085.13;4995548;28;20102;-62
2021/10/25 01:17:35;;;;;;;5.65;0.80;;;;;;;1.61;100.00;101089.50;5023482;28;20129;-67
2021/10/25 01:20:22;;;;;;;4.90;0.90;;;;;;;1.64;100.00;101091.34;4992689;28;20048;-62
2021/10/25 01:23:09;;;;;;;1.85;1.02;;;;;;;1.48;100.00;101084.69;5022012;28;20099;-62
2021/10/25 01:25:56;;;;;;;2.88;0.90;;;;;;;1.47;100.00;101089.84;5009133;28;20119;-64
2021/10/25 01:28:42;;;;;;;8.13;1.38;;;;;;;1.42;100.00;101094.91;5017833;28;20064;-62
2021/10/25 01:31:27;;;;;;;2.55;0.95;;;;;;;1.48;100.00;101102.06;5022547;28;20052;-64
2021/10/25 01:34:13;;;;;;;7.50;1.15;;;;;;;1.49;100.00;101096.91;5023739;28;20107;-63
2021/10/25 01:36:58;;;;;;;3.22;1.10;;;;;;;1.55;100.00;101114.53;4994216;28;20092;-62
2021/10/25 01:39:44;;;;;;;3.20;1.08;;;;;;;1.50;100.00;101114.38;4996598;28;20558;-63
2021/10/25 01:42:29;;;;;;;2.97;1.08;;;;;;;1.59;100.00;101114.72;4999254;28;20133;-66
2021/10/25 01:45:15;;;;;;;2.63;0.70;;;;;;;1.50;100.00;101123.94;5014571;28;20523;-70
2021/10/25 01:48:00;;;;;;;3.60;1.00;;;;;;;1.50;100.00;101124.81;5007607;28;20060;-62
2021/10/25 01:50:47;;;;;;;3.47;1.20;;;;;;;1.53;100.00;101135.38;4997171;28;20100;-64
2021/10/25 01:53:35;;;;;;;3.58;1.00;;;;;;;1.57;100.00;101121.59;5025929;28;20067;-64
2021/10/25 01:56:21;;;;;;;3.50;1.20;;;;;;;1.68;100.00;101137.69;5002664;28;20084;-64
2021/10/25 01:59:07;;;;;;;1.67;0.93;;;;;;;1.66;100.00;101141.97;5034475;28;20056;-62
2021/10/25 02:01:51;;;;;;;4.07;0.90;;;;;;;1.57;100.00;101139.91;4996994;28;20133;-63
2021/10/25 02:04:36;;;;;;;3.30;1.10;;;;;;;1.65;100.00;101134.94;4990892;28;20049;-67
2021/10/25 02:07:21;;;;;;;4.05;1.40;;;;;;;1.71;100.00;101130.88;5025719;28;20056;-61
2021/10/25 02:10:07;;;;;;;4.03;1.00;;;;;;;1.76;100.00;101131.91;5009320;28;20539;-62
2021/10/25 02:12:54;;;;;;;5.68;0.88;;;;;;;1.73;100.00;101141.34;5008109;28;20096;-63
2021/10/25 02:15:38;;;;;;;2.90;1.00;;;;;;;1.81;100.00;101147.75;5024515;28;20091;-63
2021/10/25 02:18:24;;;;;;;5.93;1.10;;;;;;;1.69;100.00;101145.59;5037339;28;20184;-62
2021/10/25 02:21:11;;;;;;;2.60;1.15;;;;;;;1.73;100.00;101157.03;5019372;28;20551;-61
2021/10/25 02:23:57;;;;;;;6.05;1.10;;;;;;;1.64;100.00;101147.16;5007710;28;20577;-67
2021/10/25 02:26:41;;;;;;;2.38;0.93;;;;;;;1.55;100.00;101166.81;5023033;28;20056;-64
2021/10/25 02:29:26;;;;;;;4.45;1.35;;;;;;;1.57;100.00;101168.66;5021286;28;20053;-64
2021/10/25 02:32:12;;;;;;;3.22;1.73;;;;;;;1.65;100.00;101158.47;5024925;28;20158;-64
2021/10/25 02:34:57;;;;;;;6.53;1.25;;;;;;;1.75;100.00;101164.13;4991318;28;20862;-61
2021/10/25 02:37:43;;;;;;;3.60;1.20;;;;;;;1.65;100.00;101175.06;5001725;28;20111;-67
2021/10/25 02:40:29;;;;;;;;;;;;;;;1.62;100.00;101171.44;5014892;28;20051;-61
2021/10/25 02:43:18;;;;;;;4.68;1.30;;;;;;;1.52;100.00;101170.22;5012727;28;19924;-61
2021/10/25 02:46:05;;;;;;;3.00;1.10;;;;;;;1.49;100.00;101175.31;5027695;28;20613;-61
2021/10/25 02:48:50;;;;;;;4.72;1.42;;;;;;;1.44;100.00;101175.97;5022237;28;20064;-65
2021/10/25 02:51:37;;;;;;;3.95;1.40;;;;;;;1.46;100.00;101175.19;5029597;28;20106;-61
2021/10/25 02:54:24;;;;;;;4.55;1.25;;;;;;;1.56;100.00;101181.66;5040460;28;20528;-62
2021/10/25 02:57:10;;;;;;;4.28;1.30;;;;;;;1.55;100.00;101185.13;5013089;28;20044;-61
2021/10/25 02:59:56;;;;;;;4.38;1.70;;;;;;;1.68;100.00;101183.03;5028477;28;20079;-63
2021/10/25 03:02:44;;;;;;;2.08;1.23;;;;;;;1.64;100.00;101185.44;5008694;28;20056;-63
2021/10/25 03:05:33;;;;;;;4.18;1.58;;;;;;;1.47;100.00;101190.06;5014572;28;20175;-64
2021/10/25 03:08:19;;;;;;;4.18;1.40;;;;;;;1.58;100.00;101190.47;5028862;28;20060;-64
2021/10/25 03:11:03;;;;;;;2.65;1.20;;;;;;;1.67;100.00;101189.09;5011469;28;20080;-63
2021/10/25 03:13:49;;;;;;;6.35;1.15;;;;;;;1.65;100.00;101195.97;5013041;28;20056;-64
2021/10/25 03:16:34;;;;;;;3.55;1.55;;;;;;;1.61;100.00;101196.69;4999475;28;20057;-63
2021/10/25 03:19:19;;;;;;;6.88;1.90;;;;;;;1.59;100.00;101195.75;5011794;28;20044;-62
2021/10/25 03:22:07;;;;;;;9.55;1.45;;;;;;;1.57;100.00;101189.56;5027084;28;20180;-63
2021/10/25 03:24:53;;;;;;;3.58;1.30;;;;;;;1.63;100.00;101199.38;5010716;28;20140;-67
2021/10/25 03:27:38;;;;;;;5.75;1.42;;;;;;;1.62;100.00;101195.84;5028218;28;20056;-62
2021/10/25 03:30:23;;;;;;;6.18;1.40;;;;;;;1.45;100.00;101191.69;5021694;28;20520;-62
2021/10/25 03:33:09;;;;;;;5.40;1.15;;;;;;;1.53;100.00;101195.50;5013799;28;20457;-62
2021/10/25 03:36:05;;;;;;;3.22;1.30;;;;;;;1.48;100.00;101204.91;5013795;28;20626;-61
2021/10/25 03:38:50;;;;;;;2.25;1.05;;;;;;;1.58;100.00;101206.16;5011609;28;20048;-65
2021/10/25 03:41:40;;;;;;;2.83;1.20;;;;;;;1.51;100.00;101210.25;5026729;28;20055;-61
2021/10/25 03:44:47;;;;;;;3.88;1.60;;;;;;;1.42;100.00;101202.03;5006757;28;20103;-64
2021/10/25 03:47:40;;;;;;;7.55;1.90;;;;;;;1.36;100.00;101209.66;5015780;28;20052;-63
2021/10/25 03:50:30;;;;;;;4.63;1.52;;;;;;;1.55;100.00;101219.09;5022779;28;20072;-63
2021/10/25 03:53:46;;;;;;;6.07;1.60;;;;;;;1.56;100.00;101231.31;4994046;28;20088;-63
2021/10/25 03:57:09;;;;;;;6.35;1.88;;;;;;;1.32;100.00;101225.13;5009961;28;20060;-62
2021/10/25 04:28:02;;;;;;;2.58;1.52;;;;;;;1.83;100.00;101259.44;4984719;28;20064;-67
2021/10/25 04:30:58;;;;;;;9.77;2.20;;;;;;;1.87;100.00;101260.44;4971890;28;20069;-62
2021/10/25 04:33:47;;;;;;;6.53;2.15;;;;;;;1.86;100.00;101261.28;4984412;28;20100;-62
2021/10/25 04:37:04;;;;;;;7.43;2.80;;;;;;;1.68;100.00;101263.16;4984744;28;20085;-64
2021/10/25 04:40:15;;;;;;;8.93;2.28;;;;;;;1.79;100.00;101268.00;4977882;28;20879;-62
2021/10/25 04:43:02;;;;;;;6.78;2.20;;;;;;;1.80;100.00;101281.94;5024150;28;20267;-63
2021/10/25 04:45:47;;;;;;;5.97;2.17;;;;;;;1.80;100.00;101282.84;5030905;28;20411;-62
2021/10/25 04:48:33;;;;;;;8.93;2.58;;;;;;;1.90;100.00;101274.50;5011990;28;20049;-62
2021/10/25 04:51:17;;;;;;;5.32;2.60;;;;;;;2.00;100.00;101281.88;5026817;28;20153;-65
2021/10/25 04:54:16;;;;;;;14.80;2.33;;;;;;;2.08;100.00;101290.91;5026591;28;20074;-67
2021/10/25 04:57:09;;;;;;;6.10;2.30;;;;;;;1.97;100.00;101292.22;5026685;28;20090;-65
2021/10/25 04:59:55;;;;;;;8.35;3.03;;;;;;;1.75;100.00;101292.25;4988624;28;20137;-65
2021/10/25 05:02:40;;;;;;;4.65;2.60;;;;;;;1.57;100.00;101283.66;5004098;28;20107;-63
2021/10/25 05:05:26;;;;;;;6.93;3.13;;;;;;;1.61;100.00;101303.88;5009186;28;20056;-67
2021/10/25 05:08:11;;;;;;;5.72;3.25;;;;;;;1.56;100.00;101296.66;5027334;28;20068;-63
2021/10/25 05:10:56;;;;;;;11.90;3.55;;;;;;;1.64;100.00;101308.31;5007834;28;20052;-64
2021/10/25 05:13:42;;;;;;;6.00;2.92;;;;;;;1.70;100.00;101304.22;5010752;28;20100;-63
2021/10/25 05:16:28;;;;;;;4.78;2.35;;;;;;;1.76;100.00;101304.47;4990301;28;20100;-64
2021/10/25 05:19:38;;;;;;;5.88;2.42;;;;;;;1.71;100.00;101308.63;5021202;28;20574;-64
2021/10/25 05:22:31;;;;;;;9.70;3.10;;;;;;;1.64;100.00;101314.44;5017509;28;20420;-67
2021/10/25 05:25:16;;;;;;;7.90;2.63;;;;;;;1.69;100.00;101325.06;5025012;28;20075;-67
2021/10/25 05:28:00;;;;;;;6.88;2.78;;;;;;;1.67;100.00;101317.19;4995362;28;20150;-63
2021/10/25 05:30:45;;;;;;;5.30;2.53;;;;;;;1.70;100.00;101329.50;5023538;28;20079;-66
2021/10/25 05:33:39;;;;;;;6.40;1.98;;;;;;;1.75;100.00;101325.31;5011111;28;20103;-64
2021/10/25 05:36:24;;;;;;;5.72;2.30;;;;;;;1.77;100.00;101324.56;5010659;28;20068;-70
2021/10/25 05:39:11;;;;;;;12.95;3.00;;;;;;;1.81;100.00;101328.16;5019369;28;20199;-67
2021/10/25 05:41:56;;;;;;;;;;;;;;;1.84;100.00;101330.91;4997080;28;20055;-63
2021/10/25 05:44:41;;;;;;;5.13;2.67;;;;;;;1.70;100.00;101325.13;5003180;28;19923;-63
2021/10/25 05:47:28;;;;;;;7.70;2.97;;;;;;;1.89;100.00;101348.56;4991612;28;20060;-65
2021/10/25 05:50:13;;;;;;;4.90;2.55;;;;;;;2.07;100.00;101344.06;5007395;28;20049;-70
2021/10/25 05:52:59;;;;;;;6.40;2.28;;;;;;;2.05;100.00;101353.56;5009309;28;20755;-64
2021/10/25 05:55:46;;;;;;;4.40;2.45;;;;;;;2.02;100.00;101357.81;4992792;28;20733;-68
2021/10/25 05:58:32;;;;;;;6.63;3.08;;;;;;;2.10;100.00;101364.22;5031121;28;20652;-67
2021/10/25 06:01:19;;;;;;;8.00;3.67;;;;;;;2.02;100.00;101365.66;4999098;28;20060;-63
2021/10/25 06:04:21;;;;;;;10.00;4.20;;;;;;;2.20;100.00;101368.97;5009280;28;20048;-63
2021/10/25 06:07:26;;;;;;;;;;;;;;;2.25;100.00;101363.06;5024009;28;20056;-69
2021/10/25 06:10:14;;;;;;;11.23;4.32;;;;;;;2.16;100.00;101360.13;5000493;28;19976;-65
2021/10/25 06:13:08;;;;;;;11.10;4.07;;;;;;;2.42;100.00;101345.41;4962777;28;20057;-64
2021/10/25 06:16:14;;;;;;;8.32;3.70;;;;;;;2.53;100.00;101363.28;4977995;28;20061;-64
2021/10/25 06:19:05;;;;;;;11.57;3.92;;;;;;;2.59;100.00;101371.38;4982838;28;20061;-64
2021/10/25 06:21:50;;;;;;;8.10;3.65;;;;;;;2.64;100.00;101369.81;4981333;28;20133;-63
2021/10/25 06:24:44;;;;;;;14.18;4.32;;;;;;;2.84;100.00;101370.53;4980940;28;20048;-64
2021/10/25 06:27:31;;;;;;;7.20;3.75;;;;;;;2.96;100.00;101370.97;4984348;28;20089;-65
2021/10/25 06:30:16;;;;;;;11.57;3.58;;;;;;;2.84;100.00;101368.81;4976269;28;20181;-67
2021/10/25 06:33:04;;;;;;;10.55;4.07;;;;;;;3.02;100.00;101365.97;4992301;28;20176;-67
2021/10/25 06:36:06;;;;;;;11.13;4.05;;;;;;;3.17;100.00;101370.00;4968609;28;20113;-64
2021/10/25 06:39:13;;;;;;;10.77;4.30;;;;;;;3.35;100.00;101369.75;4979828;28;20109;-64
2021/10/25 06:42:06;;;;;;;7.95;3.95;;;;;;;3.32;100.00;101377.53;4994870;28;20679;-63
2021/10/25 06:44:59;;;;;;;11.00;4.13;;;;;;;3.59;100.00;101375.81;4995856;28;20065;-63
2021/10/25 06:47:54;;;;;;;7.07;3.97;;;;;;;3.42;100.00;101377.00;4969709;28;20143;-68
2021/10/25 06:50:43;;;;;;;7.95;3.95;;;;;;;3.64;100.00;101380.38;4950474;28;20057;-63
2021/10/25 06:53:29;;;;;;;12.50;3.85;;;;;;;3.67;100.00;101384.81;4976399;28;20565;-65
2021/10/25 06:56:24;;;;;;;10.15;4.10;;;;;;;4.07;100.00;101386.16;4967129;28;20100;-67
2021/10/25 06:59:09;;;;;;;8.80;4.40;;;;;;;4.14;100.00;101382.91;4981994;28;20126;-65
2021/10/25 07:01:58;;;;;;;5.88;3.30;;;;;;;4.17;100.00;101383.00;4978301;28;21893;-64
2021/10/25 07:04:45;;;;;;;9.30;3.55;;;;;;;4.36;100.00;101384.47;4977051;28;20064;-64
2021/10/25 07:07:31;;;;;;;9.80;3.92;;;;;;;4.25;100.00;101383.22;4951123;28;20060;-64
2021/10/25 07:10:16;;;;;;;9.48;3.97;;;;;;;4.27;100.00;101386.78;5017680;28;20144;-63
2021/10/25 07:13:05;;;;;;;9.80;3.78;;;;;;;4.31;100.00;101402.69;5008320;28;20076;-67
2021/10/25 07:16:01;;;;;;;6.53;4.00;;;;;;;4.48;100.00;101400.59;4996684;28;20080;-73
2021/10/25 08:08:21;;;;;;;8.43;4.75;;;;;;;4.94;100.00;101401.97;4929572;29;20062;-65
2021/10/25 08:11:18;;;;;;;9.93;5.32;;;;;;;4.93;100.00;101410.72;4927070;29;20056;-67
2021/10/25 08:14:14;;;;;;;11.43;5.60;;;;;;;5.24;100.00;101401.03;4914603;29;20388;-69
2021/10/25 08:17:02;;;;;;;8.10;4.82;;;;;;;5.06;100.00;101406.66;4926883;29;20574;-64
2021/10/25 08:19:48;;;;;;;12.38;5.60;;;;;;;5.02;100.00;101404.81;4927991;29;20087;-63
2021/10/25 08:22:33;;;;;;;10.43;5.57;;;;;;;5.26;100.00;101404.59;4927288;29;20070;-62
2021/10/25 08:25:19;;;;;;;8.27;5.75;;;;;;;6.21;100.00;101406.22;4913650;29;20054;-66
2021/10/25 08:28:16;;;;;;;9.60;6.13;;;;;;;7.13;97.62;101403.88;4925267;29;20102;-66
2021/10/25 08:31:05;;;;;;;18.40;6.28;;;;;;;7.09;92.71;101414.31;5009008;28;20141;-65
2021/10/25 08:34:34;;;;;;;8.98;5.60;;;;;;;6.98;91.11;101415.84;5007522;28;20056;-66
2021/10/25 08:40:15;;;;;;;9.05;5.82;;;;;;;7.64;84.38;101419.78;5011064;28;20104;-70
2021/10/25 08:43:00;;;;;;;7.47;5.57;;;;;;;8.27;83.35;101420.91;5009093;28;20048;-65
2021/10/25 08:45:52;;;;;;;10.40;5.57;;;;;;;8.78;77.61;101421.63;5017845;28;20095;-66
2021/10/25 08:48:43;;;;;;;7.43;5.68;;;;;;;9.23;74.60;101416.94;5007050;28;20068;-63
2021/10/25 08:51:29;;;;;;;8.88;5.60;;;;;;;8.62;69.89;101417.00;5020141;28;20045;-65
2021/10/25 08:54:15;;;;;;;11.80;5.68;;;;;;;9.19;69.79;101412.47;5009937;28;20072;-63
2021/10/25 08:57:03;;;;;;;;;;;;;;;11.18;66.97;101420.25;5018792;28;20044;-63
2021/10/25 09:00:00;;;;;;;9.02;5.20;;;;;;;11.65;55.26;101416.00;5006273;28;20751;-64
2021/10/25 09:03:02;;;;;;;10.63;5.50;;;;;;;12.11;54.92;101413.38;5020716;28;20420;-67
2021/10/25 09:06:02;;;;;;;8.02;4.60;;;;;;;13.61;49.58;101409.41;4993409;28;20047;-66
2021/10/25 09:09:02;;;;;;;7.95;4.15;;;;;;;14.43;46.07;101399.00;5009630;28;20111;-65
2021/10/25 09:12:05;;;;;;;8.98;5.43;;;;;;;14.89;42.05;101410.94;5024190;28;20052;-67
2021/10/25 09:15:01;;;;;;;8.35;4.78;;;;;;;15.21;40.08;101403.44;5024584;28;20133;-65
2021/10/25 09:17:53;;;;;;;6.63;4.88;;;;;;;15.33;37.62;101414.84;5015188;28;20084;-66
2021/10/25 09:20:47;;;;;;;10.43;4.97;;;;;;;15.44;38.95;101402.28;5002917;28;20434;-69
2021/10/25 09:23:40;;;;;;;6.43;4.70;;;;;;;16.04;35.84;101379.94;5023515;28;20132;-67
2021/10/25 09:26:31;;;;;;;8.60;4.90;;;;;;;15.65;35.93;101407.31;4998028;28;20155;-63
2021/10/25 09:29:24;;;;;;;10.93;5.68;;;;;;;15.57;35.09;101408.31;4991537;28;20063;-72
2021/10/25 09:32:14;;;;;;;6.10;4.80;;;;;;;15.70;36.03;101404.59;5018593;28;20053;-70
2021/10/25 09:35:28;;;;;;;13.95;5.72;;;;;;;16.24;35.43;101406.34;5014012;28;20114;-67
2021/10/25 09:51:10;;;;;;;6.50;5.00;;;;;;;15.89;34.96;101390.00;5022577;28;20056;-70
2021/10/25 09:53:58;;;;;;;10.07;5.60;;;;;;;17.34;32.37;101397.09;5013948;28;20056;-67
2021/10/25 09:56:51;;;;;;;5.95;4.90;;;;;;;16.33;32.05;101395.47;5004209;28;20662;-64
2021/10/25 10:00:10;;;;;;;7.65;4.97;;;;;;;16.39;33.34;101398.06;4903514;29;20547;-71
2021/10/25 10:03:09;;;;;;;9.13;4.75;;;;;;;17.37;30.54;101392.53;4915013;29;20110;-65
2021/10/25 10:06:15;;;;;;;8.98;4.93;;;;;;;16.68;31.08;101393.97;4891835;29;20131;-64
2021/10/25 10:09:13;;;;;;;9.52;4.70;;;;;;;15.08;33.79;101386.69;4902857;29;20432;-66
2021/10/25 10:12:01;;;;;;;8.93;4.35;;;;;;;15.16;33.70;101395.50;4911447;29;20062;-67
2021/10/25 10:14:52;;;;;;;7.90;4.63;;;;;;;14.91;33.87;101396.66;4905480;29;20059;-69
2021/10/25 10:17:48;;;;;;;8.10;4.68;;;;;;;15.00;33.40;101387.69;4909796;29;20084;-73
2021/10/25 10:20:43;;;;;;;6.22;4.30;;;;;;;15.09;33.64;101391.13;4896838;29;20062;-64
2021/10/25 10:23:31;;;;;;;7.57;3.90;;;;;;;15.00;33.73;101391.25;4890869;29;20564;-65
2021/10/25 10:26:17;;;;;;;5.85;4.60;;;;;;;14.78;33.23;101384.38;4901280;29;20143;-67
2021/10/25 10:29:24;;;;;;;8.95;4.30;;;;;;;15.80;32.29;101382.13;4903356;29;20064;-65
2021/10/25 10:32:22;;;;;;;9.07;4.97;;;;;;;15.93;30.91;101384.56;4907221;29;20461;-67
2021/10/25 10:35:43;;;;;;;6.65;3.97;;;;;;;16.45;31.23;101385.47;4962178;28;20045;-71
2021/10/25 10:38:32;;;;;;;7.40;3.22;;;;;;;17.02;29.73;101386.16;5021408;28;20548;-63
2021/10/25 10:41:40;;;;;;;4.93;3.50;;;;;;;16.74;28.55;101379.59;5022628;28;20056;-64
2021/10/25 10:44:58;;;;;;;6.85;3.20;;;;;;;17.36;28.42;101387.19;5009021;28;20045;-66
2021/10/25 10:48:02;;;;;;;6.90;3.17;;;;;;;17.36;28.05;101379.16;4994927;28;20084;-66
2021/10/25 10:50:59;;;;;;;8.05;3.42;;;;;;;16.85;27.93;101369.56;5019878;28;20111;-64
2021/10/25 10:53:55;;;;;;;5.28;2.97;;;;;;;16.54;28.94;101381.78;5011912;28;20049;-67
2021/10/25 10:56:53;;;;;;;5.63;3.20;;;;;;;16.02;28.93;101362.16;5020841;28;20595;-67
2021/10/25 10:59:50;;;;;;;5.25;2.60;;;;;;;15.84;29.79;101373.13;5023398;28;20048;-66
2021/10/25 11:02:37;;;;;;;6.00;3.42;;;;;;;15.12;29.78;101360.81;5021229;28;20119;-66
2021/10/25 11:05:33;;;;;;;6.75;3.13;;;;;;;14.41;31.26;101358.09;5018616;28;20080;-66
2021/10/25 11:08:21;;;;;;;5.40;3.38;;;;;;;13.78;32.01;101355.06;5030011;28;20556;-65
2021/10/25 11:11:10;;;;;;;5.68;3.38;;;;;;;14.06;32.25;101355.72;5023656;28;20049;-69
2021/10/25 11:14:04;;;;;;;8.63;3.20;;;;;;;15.00;31.47;101348.50;5006736;28;20119;-64
2021/10/25 11:19:58;;;;;;;5.93;3.50;;;;;;;16.11;29.58;101340.56;5014185;28;20052;-71
2021/10/25 11:22:43;;;;;;;7.20;3.38;;;;;;;15.98;29.01;101339.03;4997669;28;20071;-67
2021/10/25 11:25:38;;;;;;;6.60;3.65;;;;;;;14.82;29.85;101340.69;5018745;28;20099;-70
2021/10/25 11:28:23;;;;;;;5.88;3.58;;;;;;;13.73;32.18;101330.22;5006387;28;20107;-66
2021/10/25 11:31:07;;;;;;;11.77;3.90;;;;;;;13.07;32.87;101329.78;5021374;28;20544;-67
2021/10/25 11:33:53;;;;;;;5.53;3.90;;;;;;;12.44;33.74;101328.22;5027528;28;20127;-64
2021/10/25 11:36:48;;;;;;;;;;;;;;;12.98;34.55;101340.50;5022538;28;20057;-66
2021/10/25 11:40:06;;;;;;;8.80;4.40;;;;;;;12.68;34.44;101336.13;4996645;28;20349;-64
2021/10/25 11:42:52;;;;;;;7.70;4.05;;;;;;;11.88;35.02;101338.09;5019649;28;20130;-64
2021/10/25 11:45:36;;;;;;;8.00;4.03;;;;;;;11.48;36.09;101328.25;5008203;28;20060;-65
2021/10/25 11:48:32;;;;;;;6.72;4.60;;;;;;;11.29;36.75;101329.13;5007348;28;20106;-64
2021/10/25 11:51:16;;;;;;;6.63;4.00;;;;;;;10.47;37.48;101323.50;5024150;28;20141;-74
2021/10/25 11:54:02;;;;;;;5.78;3.50;;;;;;;10.10;38.50;101330.38;5018286;28;20068;-68
2021/10/25 11:56:55;;;;;;;5.72;3.20;;;;;;;10.02;39.26;101320.56;5010721;28;20096;-65
2021/10/25 11:59:40;;;;;;;6.35;3.65;;;;;;;9.80;39.41;101319.50;5013493;28;20043;-67
2021/10/25 12:02:27;;;;;;;6.22;3.30;;;;;;;9.87;40.12;101323.09;5032028;28;20118;-66
2021/10/25 12:05:23;;;;;;;6.85;3.25;;;;;;;9.62;39.93;101318.47;5010084;28;20045;-60
2021/10/25 12:08:10;;;;;;;6.22;3.50;;;;;;;9.73;40.99;101298.28;5008335;28;20103;-65
2021/10/25 12:10:56;;;;;;;6.85;3.20;;;;;;;10.07;40.58;101300.28;5020175;28;20052;-68
2021/10/25 12:13:41;;;;;;;6.38;3.88;;;;;;;9.74;40.53;101308.88;5021758;28;20535;-63
2021/10/25 12:16:27;;;;;;;4.80;3.38;;;;;;;9.79;40.95;101300.94;5022836;28;20099;-60
2021/10/25 12:19:12;;;;;;;6.97;3.33;;;;;;;10.32;39.55;101294.28;5018890;28;20521;-60
2021/10/25 12:22:07;;;;;;;;;;;;;;;10.65;40.10;101297.09;5022334;28;20088;-57
2021/10/25 12:24:55;;;;;;;6.10;3.13;;;;;;;10.44;38.95;101297.88;5021981;28;19978;-67
2021/10/25 12:27:41;;;;;;;7.43;2.92;;;;;;;10.64;38.68;101293.53;5002213;28;20087;-57
2021/10/25 12:30:28;;;;;;;6.38;2.92;;;;;;;10.64;38.80;101295.31;5023249;28;20111;-60
2021/10/25 12:33:12;;;;;;;5.13;2.78;;;;;;;10.14;38.43;101291.50;5027666;28;20048;-63
2021/10/25 12:35:57;;;;;;;7.50;3.03;;;;;;;9.83;39.02;101295.69;5012767;28;20087;-59
2021/10/25 12:38:44;;;;;;;8.90;3.67;;;;;;;9.74;39.70;101298.28;5027035;28;20076;-68
2021/10/25 12:41:29;;;;;;;8.13;3.75;;;;;;;9.63;41.21;101304.34;5024206;28;20107;-65
2021/10/25 12:44:33;;;;;;;6.75;3.25;;;;;;;9.55;41.00;101297.22;5007217;28;20048;-58
2021/10/25 12:47:21;;;;;;;9.68;3.55;;;;;;;9.14;42.12;101284.53;5031609;28;20051;-70
2021/10/25 12:50:13;;;;;;;5.68;2.85;;;;;;;9.05;41.99;101276.47;5012339;28;20052;-60
2021/10/25 12:52:58;;;;;;;8.18;2.75;;;;;;;8.77;42.60;101283.22;5011741;28;20974;-69
2021/10/25 12:55:55;;;;;;;8.80;3.17;;;;;;;8.60;43.74;101274.22;5001179;28;20191;-66
2021/10/25 12:58:41;;;;;;;6.72;3.50;;;;;;;7.98;44.11;101272.47;5011190;28;20080;-63
2021/10/25 13:01:25;;;;;;;4.35;2.50;;;;;;;7.88;45.18;101267.91;5025052;28;20051;-64
2021/10/25 13:04:10;;;;;;;10.82;2.60;;;;;;;7.92;45.32;101269.72;5028022;28;20500;-63
2021/10/25 13:06:55;;;;;;;6.57;2.53;;;;;;;8.04;45.79;101269.91;5028006;28;20123;-63
2021/10/25 13:09:52;;;;;;;6.25;2.40;;;;;;;8.32;46.02;101285.28;5012230;28;20535;-65
2021/10/25 13:12:37;;;;;;;;;;;;;;;8.54;45.28;101282.06;5021920;28;20060;-61
2021/10/25 13:15:24;;;;;;;9.23;2.60;;;;;;;7.99;46.02;101278.66;5017323;28;19931;-64
2021/10/25 13:18:11;;;;;;;10.25;2.63;;;;;;;7.72;47.48;101273.81;5031735;28;20136;-62
2021/10/25 13:20:57;;;;;;;3.80;2.45;;;;;;;7.88;48.12;101270.56;5027353;28;20047;-65
2021/10/25 13:23:43;;;;;;;5.43;3.20;;;;;;;7.55;48.88;101261.22;5010586;28;20052;-69
2021/10/25 13:26:30;;;;;;;18.73;3.00;;;;;;;7.76;49.53;101259.81;5009965;28;20119;-60
2021/10/25 13:29:15;;;;;;;11.05;3.05;;;;;;;7.57;49.12;101252.50;5004117;28;20065;-64
2021/10/25 13:31:59;;;;;;;7.68;2.80;;;;;;;7.47;50.68;101245.28;5021355;28;20052;-65
2021/10/25 13:34:44;;;;;;;8.48;2.78;;;;;;;7.95;50.73;101247.78;5023632;28;20096;-63
2021/10/25 13:37:29;;;;;;;7.05;3.40;;;;;;;8.15;49.49;101244.53;5005157;28;20132;-68
2021/10/25 13:40:14;;;;;;;7.50;3.13;;;;;;;7.88;50.33;101243.28;5007284;28;20068;-64
2021/10/25 13:43:01;;;;;;;5.88;3.00;;;;;;;7.28;51.16;101245.84;4993879;28;20052;-62
2021/10/25 13:45:47;;;;;;;10.57;3.30;;;;;;;7.48;52.08;101241.78;5012899;28;20068;-63
2021/10/25 13:48:31;;;;;;;10.70;3.53;;;;;;;7.08;53.02;101241.13;5040101;28;20126;-63
2021/10/25 13:51:16;;;;;;;8.95;3.85;;;;;;;6.68;54.90;101241.25;5022047;28;20056;-63
2021/10/25 13:54:03;;;;;;;8.50;3.50;;;;;;;6.81;55.99;101240.63;5021403;28;20045;-62
2021/10/25 13:56:48;;;;;;;9.85;3.30;;;;;;;6.45;57.55;101232.88;5005974;28;20143;-70
2021/10/25 13:59:35;;;;;;;11.35;2.95;;;;;;;6.58;57.99;101247.19;5007620;28;20107;-64
2021/10/25 14:02:30;;;;;;;9.80;3.10;;;;;;;6.69;58.78;101238.63;5020380;28;20048;-64
2021/10/25 14:05:20;;;;;;;6.93;3.53;;;;;;;6.55;59.06;101236.59;5009730;28;20080;-64
2021/10/25 14:08:04;;;;;;;4.80;2.83;;;;;;;6.62;59.62;101234.13;5039127;28;20162;-63
2021/10/25 14:10:52;;;;;;;7.55;3.33;;;;;;;6.71;59.50;101228.09;5024268;28;20048;-63
2021/10/25 14:13:42;;;;;;;11.52;4.20;;;;;;;6.61;60.26;101223.53;5025004;28;20481;-65
2021/10/25 14:19:11;;;;;;;13.27;4.25;;;;;;;5.96;63.60;101227.47;5025140;28;20084;-65
2021/10/25 14:21:59;;;;;;;11.80;4.50;;;;;;;5.88;66.35;101233.41;5025499;28;20456;-66
2021/10/25 14:24:44;;;;;;;16.00;3.15;;;;;;;5.58;67.83;101223.03;5023931;28;20052;-66
2021/10/25 14:27:28;;;;;;;7.38;2.85;;;;;;;5.53;71.29;101231.72;5024535;28;20516;-64
2021/10/25 14:30:13;;;;;;;11.43;3.77;;;;;;;5.52;72.52;101230.81;5023974;28;20517;-63
2021/10/25 14:32:58;;;;;;;17.15;5.68;;;;;;;5.70;73.01;101231.22;5024234;28;20084;-63
2021/10/25 14:35:43;;;;;;;15.05;5.05;;;;;;;5.47;75.45;101221.94;4998049;28;20071;-64
2021/10/25 14:44:27;;;;;;;15.70;4.57;;;;;;;5.47;79.60;101208.78;5025880;28;20091;-64
2021/10/25 14:55:57;;;;;;;9.15;4.15;;;;;;;5.48;80.51;101213.19;5021749;28;20107;-63
2021/10/25 14:58:42;;;;;;;14.38;5.03;;;;;;;5.36;81.00;101212.91;5022186;28;20056;-64
2021/10/25 15:01:26;;;;;;;12.15;5.22;;;;;;;5.44;81.87;101223.59;5017553;28;20416;-71
2021/10/25 15:04:13;;;;;;;12.45;4.13;;;;;;;5.54;82.24;101220.31;5016518;28;20575;-68